createdAt,value
2018-09-16T11:41:29.923Z,49.82
2018-09-16T11:42:29.894Z,50.12
2018-09-16T11:43:29.876Z,50.98
2018-09-16T11:44:29.862Z,50.12
2018-09-16T11:45:29.846Z,50.14
2018-09-16T11:46:29.870Z,48.88
2018-09-16T11:47:29.820Z,49.95
2018-09-16T11:48:29.807Z,50.16
2018-09-16T11:49:29.796Z,50.35
2018-09-16T11:50:29.785Z,47.26
2018-09-16T11:51:29.785Z,47.94
2018-09-16T11:52:29.768Z,47.24
2018-09-16T11:53:29.748Z,48.18
2018-09-16T11:54:29.735Z,48.66
2018-09-16T11:55:29.722Z,48.47
2018-09-16T11:56:29.723Z,49.24
2018-09-16T11:57:29.699Z,48.86
2018-09-16T11:58:29.703Z,49.27
2018-09-16T11:59:29.678Z,48.79
2018-09-16T12:00:29.660Z,48.03
2018-09-16T12:01:29.651Z,46.99
2018-09-16T12:02:29.676Z,47.81
2018-09-16T12:03:29.661Z,46.77
2018-09-16T12:04:29.674Z,44.65
2018-09-16T12:05:29.668Z,44.05
2018-09-16T12:06:29.671Z,43.40
2018-09-16T12:07:29.653Z,43.95
2018-09-16T12:08:29.640Z,44.51
2018-09-16T12:09:29.630Z,46.01
2018-09-16T12:10:29.552Z,43.63
2018-09-16T12:11:29.546Z,42.39
2018-09-16T12:12:29.546Z,42.33
2018-09-16T12:13:29.517Z,41.34
2018-09-16T12:14:29.508Z,42.02
2018-09-16T12:15:29.506Z,40.68
2018-09-16T12:16:29.488Z,40.60
2018-09-16T12:17:29.489Z,40.41
2018-09-16T12:18:29.464Z,39.26
2018-09-16T12:19:29.454Z,38.57
2018-09-16T12:20:29.444Z,38.93
2018-09-16T12:21:29.435Z,39.04
2018-09-16T12:22:29.424Z,38.77
2018-09-16T12:23:29.421Z,39.69
2018-09-16T12:24:29.405Z,40.13
2018-09-16T12:25:29.392Z,40.54
2018-09-16T12:26:29.381Z,40.85
2018-09-16T12:27:29.373Z,40.85
2018-09-16T12:28:29.372Z,39.69
2018-09-16T12:29:29.364Z,40.17
2018-09-16T12:30:29.343Z,40.95
2018-09-16T12:31:29.331Z,40.47
2018-09-16T12:32:29.322Z,41.05
2018-09-16T12:33:29.347Z,42.49
2018-09-16T12:34:29.304Z,41.85
2018-09-16T12:35:29.294Z,41.26
2018-09-16T12:36:29.283Z,40.50
2018-09-16T12:37:29.277Z,39.43
2018-09-16T12:38:29.265Z,39.16
2018-09-16T12:39:29.261Z,38.64
2018-09-16T12:40:29.246Z,39.70
2018-09-16T12:41:29.235Z,39.29
2018-09-16T12:42:29.225Z,38.83
2018-09-16T12:43:29.214Z,38.26
2018-09-16T12:44:29.216Z,38.40
2018-09-16T12:45:29.196Z,37.23
2018-09-16T12:46:29.184Z,37.41
2018-09-16T12:47:29.177Z,39.84
2018-09-16T12:48:29.165Z,39.65
2018-09-16T12:49:29.179Z,39.31
2018-09-16T12:50:29.149Z,39.31
2018-09-16T12:51:29.139Z,38.64
2018-09-16T12:52:29.134Z,38.73
2018-09-16T12:53:29.122Z,39.43
2018-09-16T12:54:29.129Z,39.80
2018-09-16T12:55:29.109Z,39.28
2018-09-16T12:56:29.114Z,37.45
2018-09-16T12:57:29.085Z,37.02
2018-09-16T12:58:29.094Z,38.05
2018-09-16T12:59:29.147Z,38.23
2018-09-16T13:00:29.065Z,39.20
2018-09-16T13:01:29.058Z,38.57
2018-09-16T13:02:29.049Z,38.10
2018-09-16T13:03:29.033Z,38.38
2018-09-16T13:04:29.038Z,38.46
2018-09-16T13:05:29.026Z,37.79
2018-09-16T13:06:29.013Z,38.62
2018-09-16T13:07:29.002Z,38.71
2018-09-16T13:08:29.005Z,39.78
2018-09-16T13:09:29.011Z,38.05
2018-09-16T13:10:29.033Z,37.85
2018-09-16T13:11:29.017Z,38.17
2018-09-16T13:12:29.021Z,38.03
2018-09-16T13:13:29.019Z,38.15
2018-09-16T13:14:28.994Z,37.45
2018-09-16T13:15:29.000Z,39.10
2018-09-16T13:16:28.976Z,37.14
2018-09-16T13:17:28.983Z,38.29
2018-09-16T13:18:28.898Z,39.39
2018-09-16T13:19:28.890Z,38.93
2018-09-16T13:20:28.897Z,37.19
2018-09-16T13:21:28.871Z,36.92
2018-09-16T13:22:28.865Z,37.02
2018-09-16T13:23:28.857Z,37.56
2018-09-16T13:24:28.849Z,37.58
2018-09-16T13:25:28.837Z,37.18
2018-09-16T13:26:28.842Z,36.92
2018-09-16T13:27:28.820Z,36.04
2018-09-16T13:28:28.811Z,36.16
2018-09-16T13:29:28.804Z,35.47
2018-09-16T13:30:28.795Z,35.31
2018-09-16T13:31:28.796Z,36.10
2018-09-16T13:32:28.775Z,35.78
2018-09-16T13:33:28.769Z,35.06
2018-09-16T13:34:28.765Z,35.85
2018-09-16T13:35:28.749Z,34.79
2018-09-16T13:36:28.752Z,35.18
2018-09-16T13:37:28.743Z,35.44
2018-09-16T13:38:28.741Z,36.24
2018-09-16T13:39:28.719Z,36.06
2018-09-16T13:40:28.712Z,35.77
2018-09-16T13:41:28.715Z,35.67
2018-09-16T13:42:28.695Z,34.97
2018-09-16T13:43:28.688Z,34.99
2018-09-16T13:44:28.677Z,35.26
2018-09-16T13:45:28.669Z,35.10
2018-09-16T13:46:28.686Z,34.63
2018-09-16T13:47:28.654Z,33.79
2018-09-16T13:48:28.645Z,34.31
2018-09-16T13:49:28.637Z,32.26
2018-09-16T13:50:28.628Z,32.17
2018-09-16T13:51:28.630Z,31.03
2018-09-16T13:52:28.629Z,32.23
2018-09-16T13:53:28.609Z,32.43
2018-09-16T13:54:28.599Z,33.62
2018-09-16T13:55:28.590Z,33.82
2018-09-16T13:56:28.581Z,32.27
2018-09-16T13:57:28.589Z,31.80
2018-09-16T13:58:28.570Z,30.68
2018-09-16T13:59:28.562Z,33.15
2018-09-16T14:00:28.553Z,33.62
2018-09-16T14:01:28.548Z,33.64
2018-09-16T14:02:28.613Z,34.22
2018-09-16T14:03:28.530Z,33.56
2018-09-16T14:04:28.525Z,33.75
2018-09-16T14:05:28.515Z,34.03
2018-09-16T14:06:28.509Z,34.31
2018-09-16T14:07:28.514Z,34.47
2018-09-16T14:08:28.497Z,35.16
2018-09-16T14:09:28.558Z,34.97
2018-09-16T14:10:28.480Z,34.68
2018-09-16T14:11:28.472Z,34.40
2018-09-16T14:12:28.481Z,34.17
2018-09-16T14:13:28.458Z,34.94
2018-09-16T14:14:28.457Z,34.72
2018-09-16T14:15:28.521Z,35.61
2018-09-16T14:16:28.435Z,35.13
2018-09-16T14:17:28.431Z,34.95
2018-09-16T14:18:28.436Z,34.47
2018-09-16T14:19:28.415Z,33.77
2018-09-16T14:20:28.405Z,33.22
2018-09-16T14:21:28.400Z,33.61
2018-09-16T14:22:28.396Z,33.33
2018-09-16T14:23:28.426Z,33.44
2018-09-16T14:24:28.406Z,32.68
2018-09-16T14:25:28.423Z,32.86
2018-09-16T14:26:28.415Z,33.44
2018-09-16T14:27:28.422Z,32.97
2018-09-16T14:28:28.452Z,33.26
2018-09-16T14:29:28.400Z,33.54
2018-09-16T14:30:28.402Z,33.44
2018-09-16T14:31:28.380Z,33.65
2018-09-16T14:32:28.385Z,33.50
2018-09-16T14:33:28.393Z,32.26
2018-09-16T14:34:28.304Z,32.19
2018-09-16T14:35:28.308Z,31.52
2018-09-16T14:36:28.291Z,30.43
2018-09-16T14:37:28.289Z,30.43
2018-09-16T14:38:28.275Z,30.88
2018-09-16T14:39:28.286Z,30.43
2018-09-16T14:40:28.265Z,30.90
2018-09-16T14:41:28.257Z,31.96
2018-09-16T14:42:28.256Z,32.43
2018-09-16T14:43:28.244Z,32.52
2018-09-16T14:44:28.249Z,32.19
2018-09-16T14:45:28.236Z,33.23
2018-09-16T14:46:28.227Z,34.76
2018-09-16T14:47:28.218Z,35.80
2018-09-16T14:48:28.212Z,36.67
2018-09-16T14:49:28.218Z,36.18
2018-09-16T14:50:28.200Z,36.87
2018-09-16T14:51:28.204Z,36.94
2018-09-16T14:52:28.185Z,36.67
2018-09-16T14:53:28.179Z,36.40
2018-09-16T14:54:28.206Z,37.16
2018-09-16T14:55:28.166Z,37.26
2018-09-16T14:56:28.156Z,37.26
2018-09-16T14:57:28.152Z,37.26
2018-09-16T14:58:28.147Z,37.06
2018-09-16T14:59:28.136Z,37.92
2018-09-16T15:00:28.138Z,37.72
2018-09-16T15:01:28.122Z,38.01
2018-09-16T15:02:28.112Z,38.48
2018-09-16T15:03:28.102Z,38.70
2018-09-16T15:04:28.099Z,38.29
2018-09-16T15:05:28.104Z,38.96
2018-09-16T15:06:28.085Z,39.55
2018-09-16T15:07:28.095Z,39.45
2018-09-16T15:08:28.067Z,39.62
2018-09-16T15:09:28.058Z,39.14
2018-09-16T15:10:28.064Z,39.45
2018-09-16T15:11:28.043Z,39.55
2018-09-16T15:12:28.034Z,39.62
2018-09-16T15:13:28.034Z,39.43
2018-09-16T15:14:28.018Z,39.72
2018-09-16T15:15:28.040Z,39.32
2018-09-16T15:16:28.000Z,40.17
2018-09-16T15:17:27.996Z,40.08
2018-09-16T15:18:27.984Z,40.75
2018-09-16T15:19:27.973Z,41.31
2018-09-16T15:20:27.967Z,40.54
2018-09-16T15:21:27.966Z,40.34
2018-09-16T15:22:27.952Z,40.95
2018-09-16T15:23:27.939Z,40.44
2018-09-16T15:24:27.931Z,41.89
2018-09-16T15:25:27.920Z,40.92
2018-09-16T15:26:27.923Z,41.99
2018-09-16T15:27:27.908Z,41.80
2018-09-16T15:28:27.896Z,41.02
2018-09-16T15:29:27.885Z,41.99
2018-09-16T15:30:27.880Z,41.80
2018-09-16T15:31:27.877Z,41.80
2018-09-16T15:32:27.858Z,42.67
2018-09-16T15:33:27.848Z,42.67
2018-09-16T15:34:27.836Z,42.48
2018-09-16T15:35:27.828Z,43.45
2018-09-16T15:36:27.828Z,43.16
2018-09-16T15:37:27.807Z,43.16
2018-09-16T15:38:27.798Z,42.09
2018-09-16T15:39:27.802Z,42.21
2018-09-16T15:40:27.808Z,42.69
2018-09-16T15:41:27.831Z,42.21
2018-09-16T15:42:27.817Z,42.69
2018-09-16T15:43:27.823Z,42.11
2018-09-16T15:44:27.799Z,42.69
2018-09-16T15:45:27.795Z,42.19
2018-09-16T15:46:27.793Z,42.86
2018-09-16T15:47:27.778Z,43.06
2018-09-16T15:48:27.705Z,42.94
2018-09-16T15:49:27.696Z,42.94
2018-09-16T15:50:27.684Z,43.91
2018-09-16T15:51:27.684Z,44.10
2018-09-16T15:52:27.664Z,44.01
2018-09-16T15:53:27.654Z,44.18
2018-09-16T15:54:27.647Z,44.76
2018-09-16T15:55:27.635Z,44.67
2018-09-16T15:56:27.640Z,44.96
2018-09-16T15:57:27.615Z,46.02
2018-09-16T15:58:27.608Z,44.76
2018-09-16T15:59:27.603Z,44.47
2018-09-16T16:00:27.586Z,44.96
2018-09-16T16:01:27.576Z,44.76
2018-09-16T16:02:27.579Z,45.34
2018-09-16T16:03:27.557Z,45.92
2018-09-16T16:04:27.544Z,46.02
2018-09-16T16:05:27.535Z,45.73
2018-09-16T16:06:27.525Z,45.71
2018-09-16T16:07:27.551Z,45.90
2018-09-16T16:08:27.504Z,47.06
2018-09-16T16:09:27.494Z,45.81
2018-09-16T16:10:27.525Z,47.06
2018-09-16T16:11:27.473Z,46.41
2018-09-16T16:12:27.462Z,47.06
2018-09-16T16:13:27.462Z,46.67
2018-09-16T16:14:27.447Z,47.26
2018-09-16T16:15:27.430Z,47.26
2018-09-16T16:16:27.481Z,46.87
2018-09-16T16:17:27.410Z,46.77
2018-09-16T16:18:27.412Z,47.74
2018-09-16T16:19:27.390Z,47.26
2018-09-16T16:20:27.380Z,47.24
2018-09-16T16:21:27.367Z,47.14
2018-09-16T16:22:27.398Z,47.33
2018-09-16T16:23:27.362Z,47.52
2018-09-16T16:24:27.339Z,47.81
2018-09-16T16:25:27.327Z,47.14
2018-09-16T16:26:27.318Z,46.66
2018-09-16T16:27:27.305Z,48.49
2018-09-16T16:28:27.379Z,49.75
2018-09-16T16:29:27.288Z,48.47
2018-09-16T16:30:27.274Z,50.21
2018-09-16T16:31:27.263Z,49.34
2018-09-16T16:32:27.251Z,48.37
2018-09-16T16:33:27.258Z,48.47
2018-09-16T16:34:27.323Z,48.47
2018-09-16T16:35:27.219Z,48.76
2018-09-16T16:36:27.207Z,48.95
2018-09-16T16:37:27.216Z,49.24
2018-09-16T16:38:27.187Z,48.76
2018-09-16T16:39:27.184Z,49.24
2018-09-16T16:40:27.160Z,49.24
2018-09-16T16:41:27.153Z,48.74
2018-09-16T16:42:27.141Z,49.99
2018-09-16T16:43:27.135Z,48.74
2018-09-16T16:44:27.161Z,48.64
2018-09-16T16:45:27.145Z,48.74
2018-09-16T16:46:27.151Z,48.35
2018-09-16T16:47:27.157Z,48.35
2018-09-16T16:48:27.128Z,49.99
2018-09-16T16:49:27.132Z,49.41
2018-09-16T16:50:27.103Z,49.02
2018-09-16T16:51:27.110Z,49.99
2018-09-16T16:52:27.046Z,49.99
2018-09-16T16:53:27.017Z,49.70
2018-09-16T16:54:27.037Z,51.03
2018-09-16T16:55:26.992Z,50.84
2018-09-16T16:56:26.982Z,50.65
2018-09-16T16:57:26.973Z,50.16
2018-09-16T16:58:26.964Z,51.81
2018-09-16T16:59:26.952Z,51.68
2018-09-16T17:00:26.949Z,51.59
2018-09-16T17:01:37.235Z,51.39
2018-09-16T17:02:26.912Z,50.91
2018-09-16T17:03:26.903Z,51.39
2018-09-16T17:04:26.887Z,51.87
2018-09-16T17:05:26.896Z,51.49
2018-09-16T17:06:26.864Z,52.55
2018-09-16T17:07:26.851Z,52.26
2018-09-16T17:08:26.838Z,51.37
2018-09-16T17:09:26.891Z,51.46
2018-09-16T17:10:26.827Z,51.85
2018-09-16T17:11:26.813Z,52.23
2018-09-16T17:12:26.796Z,51.95
2018-09-16T17:13:26.781Z,52.04
2018-09-16T17:14:26.766Z,53.49
2018-09-16T17:15:26.774Z,54.07
2018-09-16T17:16:26.744Z,53.97
2018-09-16T17:17:26.734Z,55.13
2018-09-16T17:18:26.724Z,54.82
2018-09-16T17:19:26.713Z,54.82
2018-09-16T17:20:26.710Z,55.10
2018-09-16T17:21:26.681Z,56.36
2018-09-16T17:22:26.668Z,56.24
2018-09-16T17:23:36.818Z,56.43
2018-09-16T17:24:26.648Z,57.01
2018-09-16T17:25:26.636Z,57.49
2018-09-16T17:26:26.635Z,57.65
2018-09-16T17:27:26.610Z,57.94
2018-09-16T17:28:26.598Z,58.42
2018-09-16T17:29:26.578Z,58.91
2018-09-16T17:30:26.575Z,59.68
2018-09-16T17:31:26.568Z,59.75
2018-09-16T17:32:26.542Z,60.23
2018-09-16T17:33:26.530Z,60.80
2018-09-16T17:34:26.515Z,61.00
2018-09-16T17:35:26.519Z,60.49
2018-09-16T17:36:26.506Z,60.87
2018-09-16T17:37:26.480Z,60.77
2018-09-16T17:38:26.481Z,60.30
2018-09-16T17:39:26.454Z,60.77
2018-09-16T17:40:26.455Z,60.87
2018-09-16T17:41:26.457Z,61.07
2018-09-16T17:42:26.491Z,61.25
2018-09-16T17:43:26.466Z,61.93
2018-09-16T17:44:26.524Z,62.48
2018-09-16T17:45:26.429Z,62.00
2018-09-16T17:46:26.416Z,62.77
2018-09-16T17:47:26.420Z,62.38
2018-09-16T17:48:26.330Z,62.57
2018-09-16T17:49:26.335Z,63.25
2018-09-16T17:50:26.304Z,62.96
2018-09-16T17:51:26.289Z,63.34
2018-09-16T17:52:26.291Z,63.44
2018-09-16T17:53:26.269Z,63.54
2018-09-16T17:54:26.263Z,63.73
2018-09-16T17:55:26.250Z,63.64
2018-09-16T17:56:26.288Z,63.73
2018-09-16T17:57:26.227Z,63.44
2018-09-16T17:58:26.223Z,63.82
2018-09-16T17:59:26.211Z,64.12
2018-09-16T18:00:26.173Z,64.37
2018-09-16T18:01:26.159Z,64.47
2018-09-16T18:02:26.150Z,64.37
2018-09-16T18:03:26.174Z,65.05
2018-09-16T18:04:26.150Z,65.05
2018-09-16T18:05:26.107Z,64.37
2018-09-16T18:06:36.350Z,64.05
2018-09-16T18:07:26.066Z,63.95
2018-09-16T18:08:26.064Z,64.28
2018-09-16T18:09:26.046Z,64.43
2018-09-16T18:10:26.049Z,63.95
2018-09-16T18:11:26.013Z,64.66
2018-09-16T18:12:26.005Z,64.92
2018-09-16T18:13:25.987Z,64.25
2018-09-16T18:14:25.970Z,64.43
2018-09-16T18:15:25.953Z,64.63
2018-09-16T18:16:25.951Z,65.01
2018-09-16T18:17:26.009Z,65.01
2018-09-16T18:18:25.979Z,64.92
2018-09-16T18:19:25.931Z,64.82
2018-09-16T18:20:25.901Z,65.40
2018-09-16T18:21:25.872Z,65.78
2018-09-16T18:22:25.870Z,65.88
2018-09-16T18:23:25.922Z,65.88
2018-09-16T18:24:25.847Z,66.07
2018-09-16T18:25:25.822Z,65.78
2018-09-16T18:26:25.814Z,66.07
2018-09-16T18:27:25.786Z,65.78
2018-09-16T18:28:25.770Z,66.74
2018-09-16T18:29:25.776Z,66.36
2018-09-16T18:30:25.738Z,66.27
2018-09-16T18:31:25.740Z,66.42
2018-09-16T18:32:25.760Z,66.33
2018-09-16T18:33:25.754Z,66.71
2018-09-16T18:34:25.757Z,67.48
2018-09-16T18:35:25.744Z,67.58
2018-09-16T18:36:25.726Z,67.68
2018-09-16T18:37:25.703Z,68.06
2018-09-16T18:38:25.711Z,68.06
2018-09-16T18:39:25.616Z,68.70
2018-09-16T18:40:25.739Z,68.31
2018-09-16T18:41:25.739Z,69.85
2018-09-16T18:42:25.639Z,69.66
2018-09-16T18:43:25.628Z,69.75
2018-09-16T18:44:25.590Z,70.14
2018-09-16T18:45:25.540Z,70.04
2018-09-16T18:46:25.538Z,70.43
2018-09-16T18:47:25.507Z,71.19
2018-09-16T18:48:25.489Z,71.16
2018-09-16T18:49:25.506Z,71.73
2018-09-16T18:50:25.481Z,72.12
2018-09-16T18:51:25.484Z,72.79
2018-09-16T18:52:25.438Z,73.18
2018-09-16T18:53:25.505Z,73.56
2018-09-16T18:54:25.426Z,73.08
2018-09-16T18:55:25.424Z,73.75
2018-09-16T18:56:25.389Z,72.79
2018-09-16T18:57:25.431Z,72.69
2018-09-16T18:58:25.452Z,72.89
2018-09-16T18:59:25.337Z,73.27
2018-09-16T19:00:25.348Z,73.08
2018-09-16T19:01:25.300Z,73.66
2018-09-16T19:02:25.306Z,73.85
2018-09-16T19:03:25.278Z,73.75
2018-09-16T19:04:25.277Z,73.66
2018-09-16T19:05:25.229Z,74.10
2018-09-16T19:06:25.232Z,74.10
2018-09-16T19:07:25.222Z,74.39
2018-09-16T19:08:25.198Z,75.25
2018-09-16T19:09:35.342Z,75.15
2018-09-16T19:10:25.155Z,75.35
2018-09-16T19:11:25.140Z,75.35
2018-09-16T19:12:25.111Z,75.35
2018-09-16T19:13:25.169Z,76.02
2018-09-16T19:14:25.122Z,75.63
2018-09-16T19:15:25.117Z,75.82
2018-09-16T19:16:25.145Z,75.73
2018-09-16T19:17:25.099Z,75.54
2018-09-16T19:18:25.087Z,75.82
2018-09-16T19:19:25.027Z,75.54
2018-09-16T19:20:25.000Z,75.82
2018-09-16T19:21:25.013Z,75.63
2018-09-16T19:22:25.023Z,75.73
2018-09-16T19:23:25.007Z,75.92
2018-09-16T19:24:25.103Z,76.21
2018-09-16T19:25:25.022Z,76.88
2018-09-16T19:26:24.999Z,76.65
2018-09-16T19:27:24.965Z,76.94
2018-09-16T19:28:24.952Z,77.51
2018-09-16T19:29:24.880Z,78.09
2018-09-16T19:30:24.857Z,78.47
2018-09-16T19:31:24.971Z,78.38
2018-09-16T19:32:34.874Z,78.77
2018-09-16T19:33:24.853Z,79.91
2018-09-16T19:34:24.799Z,79.68
2018-09-16T19:35:24.765Z,79.78
2018-09-16T19:36:24.751Z,79.88
2018-09-16T19:37:24.806Z,81.02
2018-09-16T19:38:24.741Z,80.16
2018-09-16T19:39:24.739Z,80.16
2018-09-16T19:40:24.705Z,80.93
2018-09-16T19:41:24.719Z,80.45
2018-09-16T19:42:24.694Z,80.35
2018-09-16T19:43:24.647Z,80.45
2018-09-16T19:44:24.637Z,80.45
2018-09-16T19:45:24.625Z,80.26
2018-09-16T19:46:24.707Z,80.26
2018-09-16T19:47:24.622Z,81.12
2018-09-16T19:48:24.588Z,81.02
2018-09-16T19:49:24.668Z,81.02
2018-09-16T19:50:24.546Z,81.22
2018-09-16T19:51:24.528Z,81.12
2018-09-16T19:52:24.555Z,81.12
2018-09-16T19:53:24.483Z,81.89
2018-09-16T19:54:24.535Z,80.83
2018-09-16T19:55:24.493Z,81.95
2018-09-16T19:56:24.453Z,82.42
2018-09-16T19:57:24.458Z,82.90
2018-09-16T19:58:24.449Z,83.00
2018-09-16T19:59:24.425Z,82.81
2018-09-16T20:00:24.472Z,83.09
2018-09-16T20:01:24.352Z,83.67
2018-09-16T20:02:24.369Z,84.25
2018-09-16T20:03:24.351Z,84.15
2018-09-16T20:04:24.359Z,83.48
2018-09-16T20:05:24.310Z,83.05
2018-09-16T20:06:24.339Z,83.29
2018-09-16T20:07:24.296Z,82.81
2018-09-16T20:08:24.305Z,82.42
2018-09-16T20:09:24.256Z,82.71
2018-09-16T20:10:24.239Z,83.00
2018-09-16T20:11:24.266Z,83.58
2018-09-16T20:12:24.288Z,84.34
2018-09-16T20:13:24.264Z,84.82
2018-09-16T20:14:24.220Z,85.45
2018-09-16T20:15:24.210Z,85.35
2018-09-16T20:16:24.231Z,86.50
2018-09-16T20:17:24.181Z,86.31
2018-09-16T20:18:24.182Z,87.65
2018-09-16T20:19:24.186Z,88.13
2018-09-16T20:20:24.042Z,88.70
2018-09-16T20:21:24.051Z,88.70
2018-09-16T20:22:24.031Z,88.61
2018-09-16T20:23:24.063Z,88.42
2018-09-16T20:24:24.037Z,88.42
2018-09-16T20:25:23.984Z,88.51
2018-09-16T20:26:23.965Z,88.95
2018-09-16T20:27:23.948Z,88.28
2018-09-16T20:28:23.947Z,89.23
2018-09-16T20:29:23.940Z,88.76
2018-09-16T20:30:23.904Z,88.95
2018-09-16T20:31:23.921Z,88.51
2018-09-16T20:32:23.875Z,87.74
2018-09-16T20:33:23.836Z,88.70
2018-09-16T20:34:23.843Z,88.66
2018-09-16T20:35:23.889Z,89.04
2018-09-16T20:36:23.839Z,90.29
2018-09-16T20:37:23.818Z,91.15
2018-09-16T20:38:23.760Z,92.01
2018-09-16T20:39:23.764Z,93.45
2018-09-16T20:40:23.768Z,94.12
2018-09-16T20:41:23.713Z,93.74
2018-09-16T20:42:23.704Z,95.12
2018-09-16T20:43:23.745Z,96.47
2018-09-16T20:44:23.702Z,96.84
2018-09-16T20:45:23.685Z,98.57
2018-09-16T20:46:23.658Z,99.05
2018-09-16T20:47:23.624Z,99.81
2018-09-16T20:48:23.611Z,99.99
2018-09-16T20:49:23.684Z,99.99
2018-09-16T20:50:23.592Z,99.99
2018-09-16T20:51:23.545Z,99.99
2018-09-16T20:52:23.606Z,99.99
2018-09-16T20:53:23.535Z,99.99
2018-09-16T20:54:23.542Z,99.99
2018-09-16T20:55:23.509Z,99.99
2018-09-16T20:56:23.468Z,99.99
2018-09-16T20:57:23.491Z,99.99
2018-09-16T20:58:34.890Z,99.99
2018-09-16T20:59:23.506Z,99.99
2018-09-16T21:00:23.446Z,99.99
2018-09-16T21:01:23.435Z,99.99
2018-09-16T21:02:23.336Z,99.99
2018-09-16T21:03:23.339Z,99.99
2018-09-16T21:04:23.335Z,99.99
2018-09-16T21:05:23.344Z,99.99
2018-09-16T21:06:23.275Z,99.99
2018-09-16T21:07:23.277Z,99.99
2018-09-16T21:08:23.275Z,99.99
2018-09-16T21:09:23.241Z,99.99
2018-09-16T21:10:23.242Z,99.99
2018-09-16T21:11:23.281Z,99.99
2018-09-16T21:12:23.178Z,99.99
2018-09-16T21:13:23.181Z,99.99
2018-09-16T21:14:23.162Z,99.99
2018-09-16T21:15:23.156Z,99.99
2018-09-16T21:16:23.125Z,99.99
2018-09-16T21:17:23.103Z,99.99
2018-09-16T21:18:23.105Z,99.99
2018-09-16T21:19:23.058Z,99.99
2018-09-16T21:20:32.502Z,99.99
2018-09-16T21:21:23.048Z,99.99
2018-09-16T21:22:23.026Z,99.99
2018-09-16T21:23:22.992Z,99.99
2018-09-16T21:24:22.974Z,99.99
2018-09-16T21:25:23.015Z,99.99
2018-09-16T21:26:23.125Z,99.99
2018-09-16T21:27:22.927Z,99.99
2018-09-16T21:28:22.970Z,99.99
2018-09-16T21:29:22.962Z,99.99
2018-09-16T21:30:22.884Z,99.99
2018-09-16T21:31:22.916Z,99.99
2018-09-16T21:32:22.850Z,99.99
2018-09-16T21:33:22.833Z,99.99
2018-09-16T21:34:22.844Z,99.99
2018-09-16T21:35:22.846Z,99.99
2018-09-16T21:36:22.843Z,99.99
2018-09-16T21:37:22.792Z,99.99
2018-09-16T21:38:22.798Z,99.99
2018-09-16T21:39:22.726Z,99.99
2018-09-16T21:40:22.775Z,99.99
2018-09-16T21:41:33.525Z,99.99
2018-09-16T21:42:22.688Z,99.99
2018-09-16T21:43:22.687Z,99.99
2018-09-16T21:44:22.717Z,99.99
2018-09-16T21:45:22.671Z,99.99
2018-09-16T21:46:22.644Z,99.99
2018-09-16T21:47:22.650Z,99.99
2018-09-16T21:48:22.655Z,99.99
2018-09-16T21:49:22.529Z,99.99
2018-09-16T21:50:22.553Z,99.99
2018-09-16T21:51:22.514Z,99.99
2018-09-16T21:52:22.497Z,99.99
2018-09-16T21:53:22.478Z,99.99
2018-09-16T21:54:22.504Z,99.99
2018-09-16T21:55:22.466Z,99.99
2018-09-16T21:56:22.441Z,99.99
2018-09-16T21:57:22.477Z,99.99
2018-09-16T21:58:22.422Z,99.99
2018-09-16T21:59:22.384Z,99.99
2018-09-16T22:00:22.353Z,99.99
2018-09-16T22:01:22.398Z,99.99
2018-09-16T22:02:22.342Z,99.99
2018-09-16T22:03:32.995Z,99.99
2018-09-16T22:04:22.276Z,99.99
2018-09-16T22:05:22.251Z,99.99
2018-09-16T22:06:22.250Z,99.99
2018-09-16T22:07:22.226Z,99.99
2018-09-16T22:08:22.209Z,99.99
2018-09-16T22:09:22.180Z,99.99
2018-09-16T22:10:22.173Z,99.99
2018-09-16T22:11:22.172Z,99.99
2018-09-16T22:12:22.143Z,99.99
2018-09-16T22:13:22.214Z,99.99
2018-09-16T22:14:22.239Z,99.99
2018-09-16T22:15:22.098Z,99.99
2018-09-16T22:16:22.069Z,99.99
2018-09-16T22:17:22.119Z,99.99
2018-09-16T22:18:22.075Z,99.99
2018-09-16T22:19:22.056Z,99.99
2018-09-16T22:20:21.987Z,99.99
2018-09-16T22:21:22.034Z,99.99
2018-09-16T22:22:21.980Z,99.99
2018-09-16T22:23:21.972Z,99.99
2018-09-16T22:24:21.959Z,99.99
2018-09-16T22:25:21.976Z,99.99
2018-09-16T22:26:21.971Z,99.99
2018-09-16T22:27:22.003Z,99.99
2018-09-16T22:28:21.919Z,99.99
2018-09-16T22:29:21.915Z,99.99
2018-09-16T22:30:21.982Z,99.99
2018-09-16T22:31:21.892Z,99.99
2018-09-16T22:32:21.801Z,99.99
2018-09-16T22:33:21.762Z,99.99
2018-09-16T22:34:21.797Z,99.99
2018-09-16T22:35:21.749Z,99.99
2018-09-16T22:36:21.778Z,99.99
2018-09-16T22:37:21.700Z,99.99
2018-09-16T22:38:21.730Z,99.99
2018-09-16T22:39:21.689Z,99.99
2018-09-16T22:40:21.681Z,99.99
2018-09-16T22:41:21.651Z,99.99
2018-09-16T22:42:21.625Z,99.99
2018-09-16T22:43:21.667Z,99.99
2018-09-16T22:44:21.625Z,99.99
2018-09-16T22:45:21.593Z,99.99
2018-09-16T22:46:21.555Z,99.99
2018-09-16T22:47:32.028Z,99.99
2018-09-16T22:48:21.488Z,99.99
2018-09-16T22:49:21.523Z,99.99
2018-09-16T22:50:21.463Z,99.99
2018-09-16T22:51:21.434Z,99.99
2018-09-16T22:52:21.416Z,99.99
2018-09-16T22:53:21.405Z,99.99
2018-09-16T22:54:21.380Z,99.99
2018-09-16T22:55:21.436Z,99.99
2018-09-16T22:56:21.366Z,99.99
2018-09-16T22:57:21.368Z,99.99
2018-09-16T22:58:21.347Z,99.99
2018-09-16T22:59:21.360Z,99.99
2018-09-16T23:00:21.351Z,99.99
2018-09-16T23:01:21.318Z,99.99
2018-09-16T23:02:21.270Z,99.99
2018-09-16T23:03:21.263Z,99.99
2018-09-16T23:04:21.287Z,99.99
2018-09-16T23:05:21.239Z,99.99
2018-09-16T23:06:21.196Z,99.99
2018-09-16T23:07:21.188Z,99.99
2018-09-16T23:08:21.198Z,99.99
2018-09-16T23:09:21.188Z,99.99
2018-09-16T23:10:21.175Z,99.99
2018-09-16T23:11:21.147Z,99.99
2018-09-16T23:12:21.131Z,99.99
2018-09-16T23:13:21.167Z,99.99
2018-09-16T23:14:21.136Z,99.99
2018-09-16T23:15:21.028Z,99.99
2018-09-16T23:16:21.054Z,99.99
2018-09-16T23:17:21.042Z,99.99
2018-09-16T23:18:21.165Z,99.99
2018-09-16T23:19:21.066Z,99.99
2018-09-16T23:20:20.947Z,99.99
2018-09-16T23:21:20.993Z,99.99
2018-09-16T23:22:20.909Z,99.99
2018-09-16T23:23:20.875Z,99.99
2018-09-16T23:24:20.835Z,99.99
2018-09-16T23:25:20.827Z,99.99
2018-09-16T23:26:20.817Z,99.99
2018-09-16T23:27:20.872Z,99.99
2018-09-16T23:28:20.776Z,99.99
2018-09-16T23:29:20.777Z,99.99
2018-09-16T23:30:20.744Z,99.99
2018-09-16T23:31:20.752Z,99.99
2018-09-16T23:32:20.728Z,99.99
2018-09-16T23:33:20.751Z,99.99
2018-09-16T23:34:20.694Z,99.99
2018-09-16T23:35:20.664Z,99.99
2018-09-16T23:36:20.687Z,99.99
2018-09-16T23:37:20.661Z,99.99
2018-09-16T23:38:20.619Z,99.99
2018-09-16T23:39:20.575Z,99.99
2018-09-16T23:40:20.569Z,99.99
2018-09-16T23:41:20.546Z,99.99
2018-09-16T23:42:20.592Z,99.99
2018-09-16T23:43:20.530Z,99.99
2018-09-16T23:44:20.474Z,99.99
2018-09-16T23:45:20.544Z,99.99
2018-09-16T23:46:20.460Z,99.99
2018-09-16T23:47:20.451Z,99.99
2018-09-16T23:48:20.448Z,99.99
2018-09-16T23:49:20.389Z,99.99
2018-09-16T23:50:20.387Z,99.99
2018-09-16T23:51:20.461Z,99.99
2018-09-16T23:52:30.096Z,99.99
2018-09-16T23:53:20.359Z,99.99
2018-09-16T23:54:20.348Z,99.99
2018-09-16T23:55:20.332Z,99.99
2018-09-16T23:56:20.355Z,99.99
2018-09-16T23:57:20.246Z,99.99
2018-09-16T23:58:20.264Z,99.99
2018-09-16T23:59:20.211Z,99.99
